sensor_id;sensor_type;location;lat;lon;timestamp;pressure;altitude;pressure_sealevel;temperature;humidity
16355;BME280;8287;51.644;8.494;2023-08-20T00:02:08;100866.94;;;23.66;88.61
16355;BME280;8287;51.644;8.494;2023-08-20T00:04:37;100858.47;;;23.71;87.66
16355;BME280;8287;51.644;8.494;2023-08-20T00:07:05;100861.16;;;23.71;88.00
16355;BME280;8287;51.644;8.494;2023-08-20T00:09:33;100863.88;;;23.71;87.03
16355;BME280;8287;51.644;8.494;2023-08-20T00:11:59;100864.59;;;23.61;87.90
16355;BME280;8287;51.644;8.494;2023-08-20T00:14:52;100864.94;;;23.56;88.28
16355;BME280;8287;51.644;8.494;2023-08-20T00:17:20;100866.38;;;23.36;90.22
16355;BME280;8287;51.644;8.494;2023-08-20T00:19:47;100872.47;;;23.30;91.54
16355;BME280;8287;51.644;8.494;2023-08-20T00:22:16;100882.59;;;23.36;90.84
16355;BME280;8287;51.644;8.494;2023-08-20T00:24:43;100869.84;;;23.37;91.27
16355;BME280;8287;51.644;8.494;2023-08-20T00:27:10;100872.53;;;23.37;91.30
16355;BME280;8287;51.644;8.494;2023-08-20T00:29:36;100866.38;;;23.36;90.65
16355;BME280;8287;51.644;8.494;2023-08-20T00:32:04;100880.63;;;23.33;91.14
16355;BME280;8287;51.644;8.494;2023-08-20T00:34:30;100869.03;;;23.29;90.93
16355;BME280;8287;51.644;8.494;2023-08-20T00:36:57;100867.47;;;23.28;90.69
16355;BME280;8287;51.644;8.494;2023-08-20T00:39:25;100880.16;;;23.24;90.89
16355;BME280;8287;51.644;8.494;2023-08-20T00:41:51;100882.19;;;23.38;89.18
16355;BME280;8287;51.644;8.494;2023-08-20T00:44:18;100890.66;;;23.29;89.38
16355;BME280;8287;51.644;8.494;2023-08-20T00:46:45;100888.34;;;23.31;89.94
16355;BME280;8287;51.644;8.494;2023-08-20T00:49:12;100901.50;;;23.33;89.33
16355;BME280;8287;51.644;8.494;2023-08-20T00:51:39;100899.91;;;23.28;90.29
16355;BME280;8287;51.644;8.494;2023-08-20T00:54:06;100893.69;;;23.24;90.96
16355;BME280;8287;51.644;8.494;2023-08-20T00:56:34;100898.78;;;23.29;91.05
16355;BME280;8287;51.644;8.494;2023-08-20T00:59:01;100889.53;;;23.34;90.12
16355;BME280;8287;51.644;8.494;2023-08-20T01:01:28;100895.75;;;23.41;89.70
16355;BME280;8287;51.644;8.494;2023-08-20T01:03:54;100895.38;;;23.43;90.19
16355;BME280;8287;51.644;8.494;2023-08-20T01:06:29;100893.06;;;23.41;90.34
16355;BME280;8287;51.644;8.494;2023-08-20T01:09:05;100886.50;;;23.39;91.29
16355;BME280;8287;51.644;8.494;2023-08-20T01:11:41;100890.00;;;23.46;90.42
16355;BME280;8287;51.644;8.494;2023-08-20T01:14:14;100884.59;;;23.46;90.23
16355;BME280;8287;51.644;8.494;2023-08-20T01:16:42;100877.63;;;23.45;91.01
16355;BME280;8287;51.644;8.494;2023-08-20T01:19:11;100878.41;;;23.46;91.04
16355;BME280;8287;51.644;8.494;2023-08-20T01:21:49;100872.59;;;23.44;90.78
16355;BME280;8287;51.644;8.494;2023-08-20T01:24:33;100884.97;;;23.45;91.15
16355;BME280;8287;51.644;8.494;2023-08-20T01:27:24;100876.47;;;23.46;90.53
16355;BME280;8287;51.644;8.494;2023-08-20T01:29:55;100876.88;;;23.48;89.79
16355;BME280;8287;51.644;8.494;2023-08-20T01:32:22;100875.75;;;23.56;89.29
16355;BME280;8287;51.644;8.494;2023-08-20T01:34:49;100874.63;;;23.61;88.68
16355;BME280;8287;51.644;8.494;2023-08-20T01:37:16;100872.28;;;23.59;88.93
16355;BME280;8287;51.644;8.494;2023-08-20T01:39:42;100879.97;;;23.50;90.85
16355;BME280;8287;51.644;8.494;2023-08-20T01:42:09;100879.19;;;23.46;90.99
16355;BME280;8287;51.644;8.494;2023-08-20T01:44:36;100871.84;;;23.50;90.72
16355;BME280;8287;51.644;8.494;2023-08-20T01:47:04;100877.31;;;23.57;90.39
16355;BME280;8287;51.644;8.494;2023-08-20T01:49:31;100870.75;;;23.58;89.58
16355;BME280;8287;51.644;8.494;2023-08-20T01:51:58;100875.03;;;23.63;90.33
16355;BME280;8287;51.644;8.494;2023-08-20T01:54:24;100863.41;;;23.55;90.82
16355;BME280;8287;51.644;8.494;2023-08-20T01:56:51;100859.91;;;23.51;91.42
16355;BME280;8287;51.644;8.494;2023-08-20T01:59:19;100856.41;;;23.51;91.91
16355;BME280;8287;51.644;8.494;2023-08-20T02:01:46;100864.63;;;23.65;89.98
16355;BME280;8287;51.644;8.494;2023-08-20T02:04:14;100873.53;;;23.72;89.52
16355;BME280;8287;51.644;8.494;2023-08-20T02:06:41;100869.28;;;23.71;89.64
16355;BME280;8287;51.644;8.494;2023-08-20T02:09:07;100878.13;;;23.61;90.87
16355;BME280;8287;51.644;8.494;2023-08-20T02:11:34;100873.00;;;23.49;92.26
16355;BME280;8287;51.644;8.494;2023-08-20T02:14:01;100875.75;;;23.53;91.20
16355;BME280;8287;51.644;8.494;2023-08-20T02:16:28;100878.09;;;23.58;91.41
16355;BME280;8287;51.644;8.494;2023-08-20T02:18:54;100864.56;;;23.54;91.96
16355;BME280;8287;51.644;8.494;2023-08-20T02:21:22;100871.94;;;23.61;91.81
16355;BME280;8287;51.644;8.494;2023-08-20T02:23:49;100866.50;;;23.57;92.70
16355;BME280;8287;51.644;8.494;2023-08-20T02:26:16;100864.16;;;23.52;93.31
16355;BME280;8287;51.644;8.494;2023-08-20T02:28:42;100856.75;;;23.46;93.80
16355;BME280;8287;51.644;8.494;2023-08-20T02:31:09;100862.56;;;23.44;94.21
16355;BME280;8287;51.644;8.494;2023-08-20T02:33:36;100870.31;;;23.53;93.16
16355;BME280;8287;51.644;8.494;2023-08-20T02:36:03;100881.53;;;23.51;93.38
16355;BME280;8287;51.644;8.494;2023-08-20T02:38:31;100876.06;;;23.41;94.57
16355;BME280;8287;51.644;8.494;2023-08-20T02:40:57;100889.19;;;23.42;93.45
16355;BME280;8287;51.644;8.494;2023-08-20T02:43:24;100889.25;;;23.49;91.91
16355;BME280;8287;51.644;8.494;2023-08-20T02:45:50;100907.00;;;23.43;93.10
16355;BME280;8287;51.644;8.494;2023-08-20T02:48:17;100906.47;;;23.24;94.99
16355;BME280;8287;51.644;8.494;2023-08-20T02:50:44;100900.66;;;23.25;94.55
16355;BME280;8287;51.644;8.494;2023-08-20T02:53:11;100901.41;;;23.22;94.81
16355;BME280;8287;51.644;8.494;2023-08-20T02:55:39;100891.75;;;23.21;94.65
16355;BME280;8287;51.644;8.494;2023-08-20T02:58:06;100898.31;;;23.20;93.98
16355;BME280;8287;51.644;8.494;2023-08-20T03:00:34;100891.34;;;23.19;93.75
16355;BME280;8287;51.644;8.494;2023-08-20T03:03:01;100888.19;;;23.14;94.64
16355;BME280;8287;51.644;8.494;2023-08-20T03:05:29;100891.25;;;23.12;94.44
16355;BME280;8287;51.644;8.494;2023-08-20T03:07:55;100892.41;;;23.11;94.60
16355;BME280;8287;51.644;8.494;2023-08-20T03:10:23;100891.59;;;23.07;94.92
16355;BME280;8287;51.644;8.494;2023-08-20T03:12:51;100887.72;;;23.05;94.64
16355;BME280;8287;51.644;8.494;2023-08-20T03:15:18;100894.25;;;23.04;95.25
16355;BME280;8287;51.644;8.494;2023-08-20T03:17:45;100884.22;;;23.01;95.20
16355;BME280;8287;51.644;8.494;2023-08-20T03:20:11;100886.88;;;22.97;94.62
16355;BME280;8287;51.644;8.494;2023-08-20T03:22:38;100893.44;;;22.96;94.43
16355;BME280;8287;51.644;8.494;2023-08-20T03:25:05;100895.75;;;22.94;95.06
16355;BME280;8287;51.644;8.494;2023-08-20T03:27:32;100893.34;;;22.86;95.87
16355;BME280;8287;51.644;8.494;2023-08-20T03:30:01;100897.59;;;22.87;95.93
16355;BME280;8287;51.644;8.494;2023-08-20T03:32:28;100904.56;;;22.91;95.23
16355;BME280;8287;51.644;8.494;2023-08-20T03:34:54;100901.09;;;22.87;95.50
16355;BME280;8287;51.644;8.494;2023-08-20T03:37:22;100895.59;;;22.80;97.01
16355;BME280;8287;51.644;8.494;2023-08-20T03:39:49;100903.19;;;22.68;97.40
16355;BME280;8287;51.644;8.494;2023-08-20T03:42:16;100897.47;;;22.73;97.53
16355;BME280;8287;51.644;8.494;2023-08-20T03:44:42;100899.03;;;22.74;96.67
16355;BME280;8287;51.644;8.494;2023-08-20T03:47:10;100907.88;;;22.74;96.79
16355;BME280;8287;51.644;8.494;2023-08-20T03:49:37;100904.78;;;22.72;96.79
16355;BME280;8287;51.644;8.494;2023-08-20T03:52:04;100908.66;;;22.71;96.06
16355;BME280;8287;51.644;8.494;2023-08-20T03:54:32;100912.50;;;22.70;96.13
16355;BME280;8287;51.644;8.494;2023-08-20T03:56:59;100916.44;;;22.76;95.71
16355;BME280;8287;51.644;8.494;2023-08-20T03:59:26;100927.59;;;22.75;95.64
16355;BME280;8287;51.644;8.494;2023-08-20T04:01:52;100925.47;;;22.58;97.92
16355;BME280;8287;51.644;8.494;2023-08-20T04:04:21;100934.78;;;22.60;97.26
16355;BME280;8287;51.644;8.494;2023-08-20T04:06:47;100949.09;;;22.64;96.80
16355;BME280;8287;51.644;8.494;2023-08-20T04:09:14;100940.28;;;22.71;95.29
16355;BME280;8287;51.644;8.494;2023-08-20T04:11:42;100943.44;;;22.76;94.42
16355;BME280;8287;51.644;8.494;2023-08-20T04:14:08;100944.56;;;22.72;95.48
16355;BME280;8287;51.644;8.494;2023-08-20T04:16:35;100940.97;;;22.64;96.05
16355;BME280;8287;51.644;8.494;2023-08-20T04:19:02;100936.28;;;22.58;97.38
16355;BME280;8287;51.644;8.494;2023-08-20T04:21:30;100931.91;;;22.46;98.76
16355;BME280;8287;51.644;8.494;2023-08-20T04:23:56;100938.50;;;22.49;98.19
16355;BME280;8287;51.644;8.494;2023-08-20T04:26:23;100947.84;;;22.58;97.00
16355;BME280;8287;51.644;8.494;2023-08-20T04:28:50;100947.50;;;22.60;97.09
16355;BME280;8287;51.644;8.494;2023-08-20T04:31:16;100952.13;;;22.59;97.05
16355;BME280;8287;51.644;8.494;2023-08-20T04:33:45;100949.41;;;22.56;97.81
16355;BME280;8287;51.644;8.494;2023-08-20T04:36:11;100941.13;;;22.42;98.97
16355;BME280;8287;51.644;8.494;2023-08-20T04:38:39;100943.50;;;22.50;98.73
16355;BME280;8287;51.644;8.494;2023-08-20T04:41:06;100950.13;;;22.53;97.91
16355;BME280;8287;51.644;8.494;2023-08-20T04:43:33;100963.78;;;22.67;96.00
16355;BME280;8287;51.644;8.494;2023-08-20T04:45:59;100951.00;;;22.60;96.14
16355;BME280;8287;51.644;8.494;2023-08-20T04:48:26;100956.72;;;22.55;96.73
16355;BME280;8287;51.644;8.494;2023-08-20T04:50:53;100967.81;;;22.50;97.83
16355;BME280;8287;51.644;8.494;2023-08-20T04:53:19;100965.47;;;22.45;98.97
16355;BME280;8287;51.644;8.494;2023-08-20T04:55:47;100951.63;;;22.50;98.65
16355;BME280;8287;51.644;8.494;2023-08-20T04:58:14;100953.13;;;22.44;99.59
16355;BME280;8287;51.644;8.494;2023-08-20T05:00:42;100970.50;;;22.47;99.10
16355;BME280;8287;51.644;8.494;2023-08-20T05:03:09;100967.88;;;22.54;98.22
16355;BME280;8287;51.644;8.494;2023-08-20T05:05:35;100964.16;;;22.65;97.41
16355;BME280;8287;51.644;8.494;2023-08-20T05:08:03;100968.41;;;22.66;97.25
16355;BME280;8287;51.644;8.494;2023-08-20T05:10:30;100970.16;;;22.52;99.12
16355;BME280;8287;51.644;8.494;2023-08-20T05:12:58;100973.84;;;22.40;100.00
16355;BME280;8287;51.644;8.494;2023-08-20T05:15:24;100977.88;;;22.50;100.00
16355;BME280;8287;51.644;8.494;2023-08-20T05:17:51;100972.50;;;22.53;100.00
16355;BME280;8287;51.644;8.494;2023-08-20T05:20:17;100982.31;;;22.65;99.21
16355;BME280;8287;51.644;8.494;2023-08-20T05:22:44;100974.97;;;22.65;99.53
16355;BME280;8287;51.644;8.494;2023-08-20T05:25:11;100972.34;;;22.72;99.22
16355;BME280;8287;51.644;8.494;2023-08-20T05:27:37;100979.28;;;22.73;99.62
16355;BME280;8287;51.644;8.494;2023-08-20T05:30:07;100969.25;;;22.70;100.00
16355;BME280;8287;51.644;8.494;2023-08-20T05:32:34;100974.28;;;22.72;100.00
16355;BME280;8287;51.644;8.494;2023-08-20T05:35:01;100983.22;;;22.79;99.54
16355;BME280;8287;51.644;8.494;2023-08-20T05:37:29;100978.31;;;22.88;98.94
16355;BME280;8287;51.644;8.494;2023-08-20T05:39:56;100981.06;;;22.92;98.36
16355;BME280;8287;51.644;8.494;2023-08-20T05:42:23;100977.28;;;23.00;97.17
16355;BME280;8287;51.644;8.494;2023-08-20T05:44:49;100970.75;;;23.04;96.74
16355;BME280;8287;51.644;8.494;2023-08-20T05:47:17;100975.38;;;23.04;97.67
16355;BME280;8287;51.644;8.494;2023-08-20T05:49:44;100967.09;;;22.86;100.00
16355;BME280;8287;51.644;8.494;2023-08-20T05:52:11;100962.09;;;22.88;100.00
16355;BME280;8287;51.644;8.494;2023-08-20T05:54:38;100971.00;;;22.92;100.00
16355;BME280;8287;51.644;8.494;2023-08-20T05:57:05;100982.31;;;23.05;99.83
16355;BME280;8287;51.644;8.494;2023-08-20T05:59:31;100990.91;;;23.10;99.37
16355;BME280;8287;51.644;8.494;2023-08-20T06:01:58;100997.97;;;23.18;98.38
16355;BME280;8287;51.644;8.494;2023-08-20T06:04:26;100998.38;;;23.20;97.46
16355;BME280;8287;51.644;8.494;2023-08-20T06:06:53;100998.41;;;23.24;97.41
16355;BME280;8287;51.644;8.494;2023-08-20T06:09:19;101003.38;;;23.18;97.92
16355;BME280;8287;51.644;8.494;2023-08-20T06:11:46;101007.44;;;22.69;100.00
16355;BME280;8287;51.644;8.494;2023-08-20T06:14:13;101006.09;;;22.26;100.00
16355;BME280;8287;51.644;8.494;2023-08-20T06:16:40;100999.47;;;22.50;100.00
16355;BME280;8287;51.644;8.494;2023-08-20T06:19:07;101013.75;;;22.83;100.00
16355;BME280;8287;51.644;8.494;2023-08-20T06:21:36;101004.59;;;22.91;100.00
16355;BME280;8287;51.644;8.494;2023-08-20T06:24:03;100988.59;;;22.76;100.00
16355;BME280;8287;51.644;8.494;2023-08-20T06:26:29;100995.31;;;22.92;100.00
16355;BME280;8287;51.644;8.494;2023-08-20T06:28:56;101005.94;;;23.08;100.00
16355;BME280;8287;51.644;8.494;2023-08-20T06:31:23;101004.97;;;23.23;100.00
16355;BME280;8287;51.644;8.494;2023-08-20T06:33:50;101005.47;;;23.35;99.22
16355;BME280;8287;51.644;8.494;2023-08-20T06:36:16;101006.66;;;23.41;98.56
16355;BME280;8287;51.644;8.494;2023-08-20T06:38:45;100997.81;;;23.44;99.15
16355;BME280;8287;51.644;8.494;2023-08-20T06:41:11;101000.16;;;23.49;99.47
16355;BME280;8287;51.644;8.494;2023-08-20T06:43:38;101000.69;;;23.65;99.60
16355;BME280;8287;51.644;8.494;2023-08-20T06:46:05;100999.22;;;23.75;99.78
16355;BME280;8287;51.644;8.494;2023-08-20T06:48:32;100992.28;;;23.77;99.57
16355;BME280;8287;51.644;8.494;2023-08-20T06:50:58;100992.28;;;23.77;99.33
16355;BME280;8287;51.644;8.494;2023-08-20T06:53:25;100997.38;;;23.86;97.75
16355;BME280;8287;51.644;8.494;2023-08-20T06:55:53;100997.81;;;23.91;96.86
16355;BME280;8287;51.644;8.494;2023-08-20T06:58:20;101001.75;;;24.01;96.77
16355;BME280;8287;51.644;8.494;2023-08-20T07:00:46;100990.50;;;23.95;97.16
16355;BME280;8287;51.644;8.494;2023-08-20T07:03:13;100987.78;;;23.92;98.11
16355;BME280;8287;51.644;8.494;2023-08-20T07:05:39;100995.97;;;24.02;97.72
16355;BME280;8287;51.644;8.494;2023-08-20T07:08:06;100993.97;;;23.96;99.02
16355;BME280;8287;51.644;8.494;2023-08-20T07:10:33;100997.72;;;23.84;100.00
16355;BME280;8287;51.644;8.494;2023-08-20T07:13:01;100993.63;;;24.01;98.89
16355;BME280;8287;51.644;8.494;2023-08-20T07:15:27;100986.34;;;24.12;97.53
16355;BME280;8287;51.644;8.494;2023-08-20T07:17:54;100981.34;;;24.20;97.90
16355;BME280;8287;51.644;8.494;2023-08-20T07:20:21;100984.06;;;24.20;99.05
16355;BME280;8287;51.644;8.494;2023-08-20T07:22:48;100985.34;;;24.40;96.73
16355;BME280;8287;51.644;8.494;2023-08-20T07:25:15;100986.47;;;24.43;98.68
16355;BME280;8287;51.644;8.494;2023-08-20T07:27:41;100982.66;;;24.51;98.12
16355;BME280;8287;51.644;8.494;2023-08-20T07:30:11;100985.06;;;24.63;97.58
16355;BME280;8287;51.644;8.494;2023-08-20T07:32:37;100982.75;;;24.72;96.37
16355;BME280;8287;51.644;8.494;2023-08-20T07:35:04;100989.38;;;24.85;96.38
16355;BME280;8287;51.644;8.494;2023-08-20T07:37:31;100980.91;;;24.97;95.70
16355;BME280;8287;51.644;8.494;2023-08-20T07:39:57;100983.63;;;25.07;94.74
16355;BME280;8287;51.644;8.494;2023-08-20T07:42:23;100991.75;;;25.18;94.54
16355;BME280;8287;51.644;8.494;2023-08-20T07:44:50;100984.47;;;25.29;94.11
16355;BME280;8287;51.644;8.494;2023-08-20T07:47:20;100982.47;;;25.15;95.13
16355;BME280;8287;51.644;8.494;2023-08-20T07:49:47;100983.66;;;25.25;95.56
16355;BME280;8287;51.644;8.494;2023-08-20T07:52:14;100989.47;;;25.34;94.25
16355;BME280;8287;51.644;8.494;2023-08-20T07:54:40;100986.78;;;25.41;93.57
16355;BME280;8287;51.644;8.494;2023-08-20T07:57:09;100989.13;;;25.53;93.70
16355;BME280;8287;51.644;8.494;2023-08-20T07:59:37;100992.59;;;25.32;94.38
16355;BME280;8287;51.644;8.494;2023-08-20T08:02:03;100986.41;;;25.49;95.20
16355;BME280;8287;51.644;8.494;2023-08-20T08:04:32;100991.06;;;25.66;93.04
16355;BME280;8287;51.644;8.494;2023-08-20T08:06:59;100984.44;;;25.78;92.41
16355;BME280;8287;51.644;8.494;2023-08-20T08:09:27;100979.41;;;25.59;93.13
16355;BME280;8287;51.644;8.494;2023-08-20T08:11:54;100990.66;;;25.47;95.04
16355;BME280;8287;51.644;8.494;2023-08-20T08:14:21;100990.25;;;25.69;94.47
16355;BME280;8287;51.644;8.494;2023-08-20T08:16:48;100988.72;;;25.89;93.84
16355;BME280;8287;51.644;8.494;2023-08-20T08:19:15;100992.22;;;25.55;93.38
16355;BME280;8287;51.644;8.494;2023-08-20T08:21:44;100985.22;;;25.40;94.52
16355;BME280;8287;51.644;8.494;2023-08-20T08:24:11;100988.31;;;25.38;95.06
16355;BME280;8287;51.644;8.494;2023-08-20T08:26:40;100992.19;;;25.69;95.08
16355;BME280;8287;51.644;8.494;2023-08-20T08:29:07;100989.13;;;25.91;93.72
16355;BME280;8287;51.644;8.494;2023-08-20T08:31:35;100989.13;;;25.91;92.85
16355;BME280;8287;51.644;8.494;2023-08-20T08:34:02;100990.59;;;26.17;92.98
16355;BME280;8287;51.644;8.494;2023-08-20T08:36:29;100987.06;;;26.27;92.42
16355;BME280;8287;51.644;8.494;2023-08-20T08:38:57;100984.31;;;26.37;93.17
16355;BME280;8287;51.644;8.494;2023-08-20T08:41:25;100985.09;;;26.38;90.53
16355;BME280;8287;51.644;8.494;2023-08-20T08:43:53;100990.13;;;26.39;90.40
16355;BME280;8287;51.644;8.494;2023-08-20T08:46:22;100994.47;;;26.23;90.17
16355;BME280;8287;51.644;8.494;2023-08-20T08:48:50;100996.75;;;26.31;91.66
16355;BME280;8287;51.644;8.494;2023-08-20T08:51:18;100997.50;;;26.49;90.26
16355;BME280;8287;51.644;8.494;2023-08-20T08:53:46;101001.28;;;26.73;89.02
16355;BME280;8287;51.644;8.494;2023-08-20T08:56:14;101004.63;;;27.01;87.88
16355;BME280;8287;51.644;8.494;2023-08-20T08:58:41;101008.22;;;26.84;87.73
16355;BME280;8287;51.644;8.494;2023-08-20T09:01:07;101008.09;;;27.05;86.12
16355;BME280;8287;51.644;8.494;2023-08-20T09:03:34;101003.44;;;27.06;86.51
16355;BME280;8287;51.644;8.494;2023-08-20T09:06:01;101000.72;;;27.02;86.22
16355;BME280;8287;51.644;8.494;2023-08-20T09:08:30;101010.78;;;27.16;86.14
16355;BME280;8287;51.644;8.494;2023-08-20T09:10:58;101002.66;;;27.05;85.57
16355;BME280;8287;51.644;8.494;2023-08-20T09:13:33;101017.38;;;27.18;84.83
16355;BME280;8287;51.644;8.494;2023-08-20T09:16:03;101012.28;;;27.24;85.84
16355;BME280;8287;51.644;8.494;2023-08-20T09:18:30;101011.69;;;27.50;84.39
16355;BME280;8287;51.644;8.494;2023-08-20T09:20:57;101010.97;;;27.46;82.18
16355;BME280;8287;51.644;8.494;2023-08-20T09:23:28;101005.44;;;27.53;80.74
16355;BME280;8287;51.644;8.494;2023-08-20T09:25:55;101007.94;;;27.33;81.49
16355;BME280;8287;51.644;8.494;2023-08-20T09:28:21;101002.84;;;26.74;83.43
16355;BME280;8287;51.644;8.494;2023-08-20T09:30:57;100998.72;;;27.13;81.71
16355;BME280;8287;51.644;8.494;2023-08-20T09:33:23;101000.06;;;27.46;81.01
16355;BME280;8287;51.644;8.494;2023-08-20T09:35:50;100998.88;;;27.47;80.66
16355;BME280;8287;51.644;8.494;2023-08-20T09:38:19;100989.75;;;27.67;82.14
16355;BME280;8287;51.644;8.494;2023-08-20T09:40:48;100990.09;;;27.73;79.93
16355;BME280;8287;51.644;8.494;2023-08-20T09:43:16;100988.25;;;27.63;78.05
16355;BME280;8287;51.644;8.494;2023-08-20T09:45:43;100995.34;;;27.50;78.70
16355;BME280;8287;51.644;8.494;2023-08-20T09:48:13;100995.03;;;27.88;77.80
16355;BME280;8287;51.644;8.494;2023-08-20T09:50:43;100995.81;;;27.89;76.02
16355;BME280;8287;51.644;8.494;2023-08-20T09:53:17;100996.81;;;27.61;78.33
16355;BME280;8287;51.644;8.494;2023-08-20T09:55:44;100995.69;;;27.99;77.90
16355;BME280;8287;51.644;8.494;2023-08-20T09:58:13;100993.81;;;28.29;74.00
16355;BME280;8287;51.644;8.494;2023-08-20T10:00:40;100995.66;;;28.39;74.48
16355;BME280;8287;51.644;8.494;2023-08-20T10:03:07;100998.72;;;28.45;77.49
16355;BME280;8287;51.644;8.494;2023-08-20T10:05:37;100995.44;;;28.23;76.07
16355;BME280;8287;51.644;8.494;2023-08-20T10:08:05;100996.66;;;28.82;74.37
16355;BME280;8287;51.644;8.494;2023-08-20T10:10:34;101002.81;;;28.60;73.83
16355;BME280;8287;51.644;8.494;2023-08-20T10:13:00;101003.19;;;28.62;72.16
16355;BME280;8287;51.644;8.494;2023-08-20T10:15:28;100997.75;;;28.58;74.54
16355;BME280;8287;51.644;8.494;2023-08-20T10:17:57;100992.50;;;28.74;74.17
16355;BME280;8287;51.644;8.494;2023-08-20T10:20:28;100988.75;;;28.61;71.52
16355;BME280;8287;51.644;8.494;2023-08-20T10:23:00;100995.19;;;28.44;72.05
16355;BME280;8287;51.644;8.494;2023-08-20T10:25:27;100993.19;;;27.78;74.97
16355;BME280;8287;51.644;8.494;2023-08-20T10:27:54;100992.81;;;27.76;75.42
16355;BME280;8287;51.644;8.494;2023-08-20T10:30:24;100992.16;;;28.02;73.79
16355;BME280;8287;51.644;8.494;2023-08-20T10:32:52;100990.72;;;27.91;74.52
16355;BME280;8287;51.644;8.494;2023-08-20T10:35:23;100985.91;;;28.05;74.48
16355;BME280;8287;51.644;8.494;2023-08-20T10:38:04;100983.66;;;28.30;72.10
16355;BME280;8287;51.644;8.494;2023-08-20T10:40:52;100991.06;;;28.33;72.61
16355;BME280;8287;51.644;8.494;2023-08-20T10:43:26;100989.63;;;28.55;69.81
16355;BME280;8287;51.644;8.494;2023-08-20T10:46:05;100990.91;;;28.77;67.81
16355;BME280;8287;51.644;8.494;2023-08-20T10:48:33;100992.44;;;28.48;67.83
16355;BME280;8287;51.644;8.494;2023-08-20T10:51:06;101001.41;;;28.48;69.40
16355;BME280;8287;51.644;8.494;2023-08-20T10:53:35;100995.44;;;28.57;68.35
16355;BME280;8287;51.644;8.494;2023-08-20T10:56:09;100984.34;;;29.01;65.63
16355;BME280;8287;51.644;8.494;2023-08-20T10:58:40;100991.66;;;29.07;63.64
16355;BME280;8287;51.644;8.494;2023-08-20T11:01:23;100980.25;;;28.86;65.55
16355;BME280;8287;51.644;8.494;2023-08-20T11:03:50;100988.13;;;29.07;63.44
16355;BME280;8287;51.644;8.494;2023-08-20T11:06:17;100974.78;;;28.86;65.41
16355;BME280;8287;51.644;8.494;2023-08-20T11:08:46;100975.97;;;29.11;65.59
16355;BME280;8287;51.644;8.494;2023-08-20T11:11:13;100976.53;;;29.52;66.82
16355;BME280;8287;51.644;8.494;2023-08-20T11:13:39;100987.59;;;29.88;67.09
16355;BME280;8287;51.644;8.494;2023-08-20T11:16:08;100982.81;;;30.15;60.94
16355;BME280;8287;51.644;8.494;2023-08-20T11:18:36;100992.69;;;30.09;63.86
16355;BME280;8287;51.644;8.494;2023-08-20T11:21:03;100979.41;;;30.11;64.45
16355;BME280;8287;51.644;8.494;2023-08-20T11:23:29;100986.25;;;30.19;61.50
16355;BME280;8287;51.644;8.494;2023-08-20T11:25:58;100986.53;;;30.44;58.71
16355;BME280;8287;51.644;8.494;2023-08-20T11:28:25;100981.53;;;30.58;58.89
16355;BME280;8287;51.644;8.494;2023-08-20T11:30:53;100997.25;;;30.54;58.06
16355;BME280;8287;51.644;8.494;2023-08-20T11:33:19;101000.28;;;30.60;58.80
16355;BME280;8287;51.644;8.494;2023-08-20T11:35:46;100999.69;;;30.49;58.20
16355;BME280;8287;51.644;8.494;2023-08-20T11:38:13;100997.81;;;29.84;63.46
16355;BME280;8287;51.644;8.494;2023-08-20T11:40:40;100991.94;;;29.62;62.10
16355;BME280;8287;51.644;8.494;2023-08-20T11:43:09;100988.69;;;29.71;63.38
16355;BME280;8287;51.644;8.494;2023-08-20T11:45:44;100987.50;;;30.34;62.29
16355;BME280;8287;51.644;8.494;2023-08-20T11:48:11;100987.66;;;30.66;60.82
16355;BME280;8287;51.644;8.494;2023-08-20T11:50:37;100992.03;;;30.79;59.68
16355;BME280;8287;51.644;8.494;2023-08-20T11:53:04;100978.25;;;30.47;61.89
16355;BME280;8287;51.644;8.494;2023-08-20T11:55:31;100979.81;;;30.68;60.63
16355;BME280;8287;51.644;8.494;2023-08-20T11:57:57;100980.00;;;30.77;59.89
16355;BME280;8287;51.644;8.494;2023-08-20T12:00:27;100976.19;;;31.06;57.94
16355;BME280;8287;51.644;8.494;2023-08-20T12:02:54;100976.59;;;31.05;58.09
16355;BME280;8287;51.644;8.494;2023-08-20T12:05:21;100967.69;;;31.01;57.88
16355;BME280;8287;51.644;8.494;2023-08-20T12:07:56;100972.66;;;30.35;59.19
16355;BME280;8287;51.644;8.494;2023-08-20T12:10:24;100967.91;;;29.96;59.00
16355;BME280;8287;51.644;8.494;2023-08-20T12:12:51;100971.66;;;30.45;60.50
16355;BME280;8287;51.644;8.494;2023-08-20T12:15:18;100975.78;;;30.72;58.88
16355;BME280;8287;51.644;8.494;2023-08-20T12:17:57;100959.31;;;31.08;59.55
16355;BME280;8287;51.644;8.494;2023-08-20T12:20:26;100962.00;;;31.27;59.16
16355;BME280;8287;51.644;8.494;2023-08-20T12:22:56;100959.84;;;31.35;60.21
16355;BME280;8287;51.644;8.494;2023-08-20T12:25:23;100958.69;;;31.64;59.27
16355;BME280;8287;51.644;8.494;2023-08-20T12:27:50;100956.19;;;31.25;57.31
16355;BME280;8287;51.644;8.494;2023-08-20T12:30:17;100960.06;;;31.72;54.34
16355;BME280;8287;51.644;8.494;2023-08-20T12:32:43;100961.50;;;32.05;53.24
16355;BME280;8287;51.644;8.494;2023-08-20T12:35:11;100952.91;;;32.19;55.51
16355;BME280;8287;51.644;8.494;2023-08-20T12:37:38;100958.44;;;32.31;52.00
16355;BME280;8287;51.644;8.494;2023-08-20T12:40:06;100958.38;;;32.60;51.73
16355;BME280;8287;51.644;8.494;2023-08-20T12:42:36;100954.78;;;32.75;52.03
16355;BME280;8287;51.644;8.494;2023-08-20T12:45:04;100949.19;;;32.79;48.86
16355;BME280;8287;51.644;8.494;2023-08-20T12:47:31;100954.41;;;32.61;49.72
16355;BME280;8287;51.644;8.494;2023-08-20T12:49:57;100963.19;;;32.56;49.47
16355;BME280;8287;51.644;8.494;2023-08-20T12:52:25;100955.41;;;32.54;51.55
16355;BME280;8287;51.644;8.494;2023-08-20T12:54:52;100962.88;;;32.66;51.10
16355;BME280;8287;51.644;8.494;2023-08-20T12:57:19;100954.59;;;32.29;51.21
16355;BME280;8287;51.644;8.494;2023-08-20T12:59:45;100958.91;;;31.41;52.17
16355;BME280;8287;51.644;8.494;2023-08-20T13:02:12;100951.06;;;31.88;51.28
16355;BME280;8287;51.644;8.494;2023-08-20T13:04:39;100951.03;;;32.16;50.92